createdAt,value
2018-12-30T00:00:21.654Z,7.40
2018-12-30T00:02:49.983Z,7.80
2018-12-30T00:05:18.860Z,7.37
2018-12-30T00:07:47.153Z,6.80
2018-12-30T00:10:15.713Z,7.07
2018-12-30T00:12:43.999Z,7.23
2018-12-30T00:15:12.651Z,6.83
2018-12-30T00:17:41.191Z,7.47
2018-12-30T00:20:09.749Z,7.57
2018-12-30T00:22:38.036Z,6.53
2018-12-30T00:25:06.704Z,7.93
2018-12-30T00:27:35.010Z,7.40
2018-12-30T00:30:03.288Z,7.40
2018-12-30T00:32:31.572Z,6.50
2018-12-30T00:34:59.850Z,6.90
2018-12-30T00:37:28.135Z,7.37
2018-12-30T00:39:56.421Z,7.40
2018-12-30T00:42:24.715Z,7.17
2018-12-30T00:44:53.393Z,7.03
2018-12-30T00:47:21.668Z,8.17
2018-12-30T00:49:49.942Z,8.30
2018-12-30T00:52:18.223Z,7.80
2018-12-30T00:54:46.510Z,7.83
2018-12-30T00:57:14.791Z,9.03
2018-12-30T00:59:43.822Z,9.00
2018-12-30T01:02:12.104Z,9.57
2018-12-30T01:04:40.396Z,9.13
2018-12-30T01:07:09.356Z,9.30
2018-12-30T01:09:37.938Z,11.80
2018-12-30T01:12:06.215Z,9.97
2018-12-30T01:14:34.517Z,10.33
2018-12-30T01:17:02.797Z,9.47
2018-12-30T01:19:31.107Z,11.50
2018-12-30T01:22:00.271Z,11.33
2018-12-30T01:24:28.570Z,11.57
2018-12-30T01:26:56.884Z,12.80
2018-12-30T01:29:25.176Z,13.37
2018-12-30T01:31:54.450Z,14.27
2018-12-30T01:34:22.742Z,14.63
2018-12-30T01:36:52.882Z,15.77
2018-12-30T01:39:21.114Z,13.73
2018-12-30T01:41:49.478Z,13.37
2018-12-30T01:44:17.762Z,12.50
2018-12-30T01:46:46.116Z,10.97
2018-12-30T01:49:14.414Z,14.27
2018-12-30T01:51:42.760Z,13.70
2018-12-30T01:54:11.119Z,13.43
2018-12-30T01:56:39.427Z,14.13
2018-12-30T01:59:07.702Z,12.03
2018-12-30T02:01:35.999Z,13.67
2018-12-30T02:04:04.276Z,12.23
2018-12-30T02:06:32.597Z,12.53
2018-12-30T02:09:01.049Z,12.67
2018-12-30T02:11:29.664Z,13.10
2018-12-30T02:13:58.249Z,12.10
2018-12-30T02:16:26.554Z,12.77
2018-12-30T02:18:54.855Z,12.30
2018-12-30T02:21:23.521Z,13.43
2018-12-30T02:23:51.828Z,12.43
2018-12-30T02:26:20.114Z,12.90
2018-12-30T02:28:48.453Z,12.40
2018-12-30T02:31:16.779Z,13.30
2018-12-30T02:33:45.818Z,13.20
2018-12-30T02:36:14.150Z,13.50
2018-12-30T02:38:42.485Z,15.07
2018-12-30T02:41:10.781Z,14.93
2018-12-30T02:43:39.102Z,14.17
2018-12-30T02:46:07.394Z,15.13
2018-12-30T02:48:35.689Z,13.50
2018-12-30T02:51:03.982Z,12.03
2018-12-30T02:53:32.284Z,13.07
2018-12-30T02:56:00.598Z,14.60
2018-12-30T02:58:28.923Z,13.03
2018-12-30T03:00:57.207Z,13.27
2018-12-30T03:03:25.488Z,13.30
2018-12-30T03:05:53.798Z,12.40
2018-12-30T03:08:22.401Z,11.63
2018-12-30T03:10:50.698Z,12.23
2018-12-30T03:13:18.984Z,11.53
2018-12-30T03:15:47.277Z,11.63
2018-12-30T03:18:15.560Z,11.03
2018-12-30T03:20:44.186Z,10.80
2018-12-30T03:23:12.474Z,10.13
2018-12-30T03:25:40.764Z,11.00
2018-12-30T03:28:09.307Z,9.83
2018-12-30T03:30:37.742Z,10.83
2018-12-30T03:33:05.976Z,11.57
2018-12-30T03:35:34.273Z,11.70
2018-12-30T03:38:02.559Z,10.53
2018-12-30T03:40:30.925Z,12.43
2018-12-30T03:42:59.211Z,12.37
2018-12-30T03:45:27.857Z,12.40
2018-12-30T03:47:56.142Z,11.03
2018-12-30T03:50:24.718Z,10.97
2018-12-30T03:52:53.008Z,11.10
2018-12-30T03:55:21.377Z,10.97
2018-12-30T03:57:49.686Z,10.83
2018-12-30T04:00:17.966Z,12.80
2018-12-30T04:02:46.257Z,12.20
2018-12-30T04:05:14.593Z,13.30
2018-12-30T04:07:42.882Z,13.47
2018-12-30T04:10:11.172Z,11.87
2018-12-30T04:12:39.460Z,12.23
2018-12-30T04:15:08.092Z,10.87
2018-12-30T04:17:36.695Z,11.60
2018-12-30T04:20:06.104Z,10.93
2018-12-30T04:22:34.372Z,11.50
2018-12-30T04:25:02.650Z,10.20
2018-12-30T04:27:30.945Z,11.20
2018-12-30T04:29:59.231Z,10.37
2018-12-30T04:32:27.529Z,10.63
2018-12-30T04:34:55.815Z,10.60
2018-12-30T04:37:24.427Z,11.50
2018-12-30T04:39:52.703Z,11.73
2018-12-30T04:42:22.032Z,11.87
2018-12-30T04:44:50.410Z,11.80
2018-12-30T04:47:18.680Z,12.53
2018-12-30T04:49:47.396Z,11.23
2018-12-30T04:52:15.695Z,13.57
2018-12-30T04:54:43.982Z,12.67
2018-12-30T04:57:12.277Z,12.83
2018-12-30T04:59:40.558Z,12.13
2018-12-30T05:02:09.155Z,11.73
2018-12-30T05:04:37.454Z,12.83
2018-12-30T05:07:05.744Z,12.57
2018-12-30T05:09:34.026Z,13.17
2018-12-30T05:12:02.317Z,13.60
2018-12-30T05:14:30.627Z,14.80
2018-12-30T05:16:58.917Z,14.93
2018-12-30T05:19:27.291Z,14.20
2018-12-30T05:21:55.661Z,15.07
2018-12-30T05:24:24.251Z,14.60
2018-12-30T05:26:52.528Z,15.20
2018-12-30T05:29:20.824Z,15.17
2018-12-30T05:31:49.110Z,15.33
2018-12-30T05:34:17.414Z,15.23
2018-12-30T05:36:45.692Z,16.43
2018-12-30T05:39:13.995Z,15.17
2018-12-30T05:41:42.284Z,15.67
2018-12-30T05:44:10.583Z,17.57
2018-12-30T05:46:38.945Z,17.63
2018-12-30T05:49:07.247Z,16.43
2018-12-30T05:51:35.534Z,17.60
2018-12-30T05:54:03.844Z,17.50
2018-12-30T05:56:32.135Z,16.90
2018-12-30T05:59:00.435Z,17.43
2018-12-30T06:01:29.004Z,16.70
2018-12-30T06:03:57.286Z,16.53
2018-12-30T06:06:25.588Z,16.83
2018-12-30T06:08:53.867Z,16.53
2018-12-30T06:11:22.243Z,15.73
2018-12-30T06:13:51.070Z,17.03
2018-12-30T06:16:19.355Z,16.87
2018-12-30T06:18:47.991Z,16.20
2018-12-30T06:21:16.295Z,18.17
2018-12-30T06:23:44.656Z,17.63
2018-12-30T06:26:13.104Z,16.20
2018-12-30T06:28:41.389Z,17.70
2018-12-30T06:31:09.691Z,16.57
2018-12-30T06:33:37.981Z,16.20
2018-12-30T06:36:06.283Z,17.00
2018-12-30T06:38:34.568Z,17.10
2018-12-30T06:41:02.903Z,16.50
2018-12-30T06:43:31.189Z,18.23
2018-12-30T06:45:59.673Z,18.40
2018-12-30T06:48:28.294Z,18.73
2018-12-30T06:50:56.881Z,17.00
2018-12-30T06:53:25.182Z,17.30
2018-12-30T06:55:53.466Z,17.97
2018-12-30T06:58:21.771Z,18.90
2018-12-30T07:00:50.050Z,17.50
2018-12-30T07:03:18.344Z,16.80
2018-12-30T07:05:46.655Z,18.40
2018-12-30T07:08:14.955Z,19.87
2018-12-30T07:10:43.503Z,18.03
2018-12-30T07:13:11.881Z,18.10
2018-12-30T07:15:40.161Z,19.73
2018-12-30T07:18:08.463Z,20.07
2018-12-30T07:20:36.759Z,19.93
2018-12-30T07:23:06.052Z,20.13
2018-12-30T07:25:34.920Z,22.50
2018-12-30T07:28:03.232Z,26.93
2018-12-30T07:30:31.517Z,24.73
2018-12-30T07:32:59.814Z,21.67
2018-12-30T07:35:28.100Z,21.43
2018-12-30T07:37:56.393Z,20.90
2018-12-30T07:40:24.676Z,20.57
2018-12-30T07:42:52.961Z,22.27
2018-12-30T07:45:21.268Z,22.50
2018-12-30T07:47:49.564Z,22.43
2018-12-30T07:50:17.853Z,23.33
2018-12-30T07:52:46.465Z,22.40
2018-12-30T07:55:14.770Z,24.37
2018-12-30T07:57:43.061Z,23.57
2018-12-30T08:00:11.357Z,21.90
2018-12-30T08:02:39.636Z,22.43
2018-12-30T08:05:07.938Z,22.50
2018-12-30T08:07:36.235Z,21.67
2018-12-30T08:10:04.867Z,24.17
2018-12-30T08:12:33.150Z,22.10
2018-12-30T08:15:01.473Z,22.90
2018-12-30T08:17:29.751Z,22.97
2018-12-30T08:19:58.049Z,22.97
2018-12-30T08:22:26.328Z,24.30
2018-12-30T08:24:54.643Z,23.13
2018-12-30T08:27:22.926Z,23.20
2018-12-30T08:29:51.235Z,22.40
2018-12-30T08:32:19.519Z,23.23
2018-12-30T08:34:47.814Z,24.10
2018-12-30T08:37:16.113Z,21.60
2018-12-30T08:39:44.402Z,23.47
2018-12-30T08:42:12.700Z,21.47
2018-12-30T08:44:40.983Z,21.53
2018-12-30T08:47:09.394Z,23.87
2018-12-30T08:49:37.961Z,21.43
2018-12-30T08:52:06.262Z,20.17
2018-12-30T08:54:34.555Z,20.73
2018-12-30T08:57:02.848Z,19.60
2018-12-30T08:59:31.133Z,20.70
2018-12-30T09:01:59.442Z,20.73
2018-12-30T09:04:27.729Z,19.27
2018-12-30T09:06:56.026Z,19.67
2018-12-30T09:09:24.309Z,17.80
2018-12-30T09:11:52.613Z,17.67
2018-12-30T09:14:21.224Z,17.23
2018-12-30T09:16:49.539Z,16.10
2018-12-30T09:19:17.820Z,16.33
2018-12-30T09:21:46.117Z,16.83
2018-12-30T09:24:14.419Z,16.47
2018-12-30T09:26:42.708Z,16.00
2018-12-30T09:29:11.109Z,14.67
2018-12-30T09:31:39.383Z,13.67
2018-12-30T09:34:07.993Z,14.33
2018-12-30T09:36:36.225Z,14.03
2018-12-30T09:39:06.668Z,16.33
2018-12-30T09:41:35.247Z,13.20
2018-12-30T09:44:03.911Z,11.93
2018-12-30T09:46:32.198Z,11.93
2018-12-30T09:49:00.499Z,11.50
2018-12-30T09:51:28.780Z,13.07
2018-12-30T09:53:57.075Z,11.90
2018-12-30T09:56:25.376Z,10.80
2018-12-30T09:58:53.776Z,12.63
2018-12-30T10:01:22.058Z,10.97
2018-12-30T10:03:50.410Z,10.17
2018-12-30T10:06:18.720Z,10.23
2018-12-30T10:08:47.290Z,10.60
2018-12-30T10:11:15.881Z,9.87
2018-12-30T10:13:44.161Z,10.10
2018-12-30T10:16:12.484Z,11.43
2018-12-30T10:18:40.775Z,10.93
2018-12-30T10:21:09.070Z,12.37
2018-12-30T10:23:37.365Z,10.97
2018-12-30T10:26:05.662Z,12.53
2018-12-30T10:28:33.937Z,12.60
2018-12-30T10:31:02.524Z,12.00
2018-12-30T10:33:31.078Z,12.17
2018-12-30T10:35:59.381Z,12.30
2018-12-30T10:38:28.046Z,11.80
2018-12-30T10:40:56.337Z,12.67
2018-12-30T10:43:24.623Z,11.67
2018-12-30T10:45:53.187Z,13.27
2018-12-30T10:48:21.477Z,12.27
2018-12-30T10:50:49.773Z,11.30
2018-12-30T10:53:18.047Z,11.63
2018-12-30T10:55:46.359Z,11.03
2018-12-30T10:58:15.025Z,11.13
2018-12-30T11:00:43.432Z,9.87
2018-12-30T11:03:11.725Z,10.90
2018-12-30T11:05:40.034Z,11.00
2018-12-30T11:08:11.162Z,12.50
2018-12-30T11:10:39.940Z,11.30
2018-12-30T11:13:08.260Z,11.23
2018-12-30T11:15:36.544Z,10.57
2018-12-30T11:18:04.833Z,9.30
2018-12-30T11:20:33.128Z,11.03
2018-12-30T11:23:01.435Z,10.67
2018-12-30T11:25:30.033Z,10.37
2018-12-30T11:27:58.343Z,10.53
2018-12-30T11:30:28.917Z,9.87
2018-12-30T11:32:57.222Z,10.03
2018-12-30T11:35:25.514Z,11.37
2018-12-30T11:37:53.810Z,11.77
2018-12-30T11:40:22.092Z,10.80
2018-12-30T11:42:50.412Z,10.80
2018-12-30T11:45:18.717Z,11.37
2018-12-30T11:47:47.011Z,11.50
2018-12-30T11:50:15.384Z,11.57
2018-12-30T11:52:43.667Z,12.80
2018-12-30T11:55:12.022Z,12.30
2018-12-30T11:57:40.359Z,11.50
2018-12-30T12:00:09.889Z,12.50
2018-12-30T12:02:38.474Z,13.07
2018-12-30T12:05:06.838Z,13.27
2018-12-30T12:07:35.137Z,12.40
2018-12-30T12:10:04.621Z,13.43
2018-12-30T12:12:32.926Z,12.13
2018-12-30T12:15:01.210Z,12.90
2018-12-30T12:17:29.514Z,12.13
2018-12-30T12:19:58.155Z,13.20
2018-12-30T12:22:26.439Z,12.07
2018-12-30T12:24:54.816Z,11.93
2018-12-30T12:27:23.373Z,11.30
2018-12-30T12:29:51.673Z,12.13
2018-12-30T12:32:19.964Z,11.23
2018-12-30T12:34:48.259Z,11.23
2018-12-30T12:37:16.540Z,12.80
2018-12-30T12:39:44.840Z,11.80
2018-12-30T12:42:13.136Z,12.30
2018-12-30T12:44:41.439Z,14.03
2018-12-30T12:47:10.025Z,13.50
2018-12-30T12:49:38.317Z,12.40
2018-12-30T12:52:06.596Z,13.00
2018-12-30T12:54:34.904Z,12.57
2018-12-30T12:57:03.526Z,12.40
2018-12-30T12:59:31.850Z,13.97
2018-12-30T13:02:00.134Z,13.17
2018-12-30T13:04:28.419Z,12.67
2018-12-30T13:06:57.847Z,11.47
2018-12-30T13:09:26.165Z,11.20
2018-12-30T13:11:54.459Z,12.03
2018-12-30T13:14:23.080Z,11.43
2018-12-30T13:16:51.390Z,12.63
2018-12-30T13:19:19.690Z,11.27
2018-12-30T13:21:47.994Z,13.40
2018-12-30T13:24:16.285Z,12.00
2018-12-30T13:26:44.586Z,10.13
2018-12-30T13:29:12.894Z,10.77
2018-12-30T13:31:41.187Z,13.53
2018-12-30T13:34:09.583Z,12.03
2018-12-30T13:36:38.177Z,11.93
2018-12-30T13:39:07.311Z,10.83
2018-12-30T13:41:35.634Z,11.53
2018-12-30T13:44:03.920Z,11.20
2018-12-30T13:46:32.302Z,11.97
2018-12-30T13:49:00.902Z,11.17
2018-12-30T13:51:29.206Z,10.53
2018-12-30T13:53:57.505Z,10.60
2018-12-30T13:56:25.784Z,9.63
2018-12-30T13:58:54.481Z,10.93
2018-12-30T14:01:22.771Z,10.43
2018-12-30T14:03:51.378Z,11.03
2018-12-30T14:06:19.659Z,10.73
2018-12-30T14:08:47.968Z,11.53
2018-12-30T14:11:16.258Z,13.60
2018-12-30T14:13:44.564Z,11.40
2018-12-30T14:16:12.852Z,11.33
2018-12-30T14:18:42.155Z,10.73
2018-12-30T14:21:10.444Z,12.17
2018-12-30T14:23:39.012Z,11.03
2018-12-30T14:26:07.613Z,13.00
2018-12-30T14:28:35.909Z,9.73
2018-12-30T14:31:04.195Z,11.07
2018-12-30T14:33:32.495Z,12.07
2018-12-30T14:36:01.115Z,10.23
2018-12-30T14:38:29.470Z,9.83
2018-12-30T14:40:58.029Z,9.67
2018-12-30T14:43:26.675Z,10.67
2018-12-30T14:45:54.984Z,10.87
2018-12-30T14:48:23.275Z,10.23
2018-12-30T14:50:51.641Z,10.37
2018-12-30T14:53:19.931Z,12.47
2018-12-30T14:55:48.590Z,11.80
2018-12-30T14:58:16.896Z,13.77
2018-12-30T15:00:45.587Z,11.83
2018-12-30T15:03:13.875Z,12.63
2018-12-30T15:05:42.500Z,11.20
2018-12-30T15:08:10.791Z,11.87
2018-12-30T15:10:39.170Z,10.93
2018-12-30T15:13:07.468Z,12.10
2018-12-30T15:15:35.798Z,10.97
2018-12-30T15:18:04.084Z,13.57
2018-12-30T15:20:32.406Z,15.97
2018-12-30T15:23:01.035Z,12.63
2018-12-30T15:25:29.329Z,16.13
2018-12-30T15:27:57.916Z,15.53
2018-12-30T15:30:26.222Z,11.47
2018-12-30T15:32:54.760Z,11.13
2018-12-30T15:35:23.441Z,10.43
2018-12-30T15:37:51.741Z,11.10
2018-12-30T15:40:20.297Z,10.97
2018-12-30T15:42:48.594Z,11.53
2018-12-30T15:45:17.169Z,11.87
2018-12-30T15:47:45.477Z,11.80
2018-12-30T15:50:13.755Z,10.57
2018-12-30T15:52:42.402Z,11.43
2018-12-30T15:55:10.988Z,10.30
2018-12-30T15:57:39.696Z,11.10
2018-12-30T16:00:09.311Z,9.23
2018-12-30T16:02:37.603Z,10.13
2018-12-30T16:05:05.978Z,10.07
2018-12-30T16:07:34.290Z,12.03
2018-12-30T16:10:03.209Z,9.93
2018-12-30T16:12:31.506Z,10.37
2018-12-30T16:15:00.177Z,10.47
2018-12-30T16:17:28.536Z,10.37
2018-12-30T16:19:56.832Z,10.43
2018-12-30T16:22:26.434Z,9.97
2018-12-30T16:24:54.796Z,10.83
2018-12-30T16:27:23.083Z,14.67
2018-12-30T16:29:51.592Z,26.93
2018-12-30T16:32:19.876Z,11.43
2018-12-30T16:34:48.169Z,11.83
2018-12-30T16:37:16.483Z,11.33
2018-12-30T16:39:45.086Z,12.67
2018-12-30T16:42:13.373Z,12.53
2018-12-30T16:44:41.800Z,19.43
2018-12-30T16:47:10.423Z,13.57
2018-12-30T16:49:38.714Z,11.30
2018-12-30T16:52:07.284Z,12.87
2018-12-30T16:54:35.574Z,14.23
2018-12-30T16:57:03.878Z,16.77
2018-12-30T16:59:32.165Z,17.43
2018-12-30T17:02:00.796Z,17.60
2018-12-30T17:04:29.117Z,20.07
2018-12-30T17:06:57.398Z,23.53
2018-12-30T17:09:25.790Z,27.17
2018-12-30T17:11:54.006Z,28.97
2018-12-30T17:14:22.587Z,31.83
2018-12-30T17:16:51.170Z,34.07
2018-12-30T17:19:19.730Z,46.10
2018-12-30T17:21:48.038Z,35.40
2018-12-30T17:24:16.742Z,37.10
2018-12-30T17:26:45.028Z,57.10
2018-12-30T17:29:13.418Z,47.50
2018-12-30T17:31:41.710Z,41.50
2018-12-30T17:34:10.002Z,45.13
2018-12-30T17:36:38.310Z,43.73
2018-12-30T17:39:07.119Z,45.23
2018-12-30T17:41:35.405Z,43.00
2018-12-30T17:44:03.717Z,45.93
2018-12-30T17:46:32.000Z,42.80
2018-12-30T17:49:00.613Z,44.30
2018-12-30T17:51:28.893Z,44.30
2018-12-30T17:53:57.468Z,48.70
2018-12-30T17:56:26.074Z,50.27
2018-12-30T17:58:54.442Z,49.77
2018-12-30T18:01:22.735Z,51.60
2018-12-30T18:03:51.031Z,48.87
2018-12-30T18:06:19.673Z,49.27
2018-12-30T18:08:47.980Z,51.03
2018-12-30T18:11:16.534Z,47.97
2018-12-30T18:13:44.835Z,49.73
2018-12-30T18:16:13.498Z,53.00
2018-12-30T18:18:41.788Z,46.80
2018-12-30T18:21:10.366Z,47.13
2018-12-30T18:23:38.955Z,45.90
2018-12-30T18:26:07.259Z,46.90
2018-12-30T18:28:35.925Z,48.47
2018-12-30T18:31:04.265Z,45.53
2018-12-30T18:33:32.865Z,44.80
2018-12-30T18:36:03.494Z,48.37
2018-12-30T18:38:31.821Z,43.43
2018-12-30T18:41:00.132Z,46.13
2018-12-30T18:43:28.417Z,47.03
2018-12-30T18:45:56.801Z,47.70
2018-12-30T18:48:25.110Z,45.90
2018-12-30T18:50:53.776Z,48.37
2018-12-30T18:53:22.358Z,48.87
2018-12-30T18:55:50.938Z,50.37
2018-12-30T18:58:19.522Z,47.27
2018-12-30T19:00:47.827Z,51.73
2018-12-30T19:03:16.504Z,49.37
2018-12-30T19:05:45.070Z,52.43
2018-12-30T19:08:14.242Z,49.60
2018-12-30T19:10:42.874Z,50.47
2018-12-30T19:13:11.453Z,50.37
2018-12-30T19:15:39.759Z,52.23
2018-12-30T19:18:08.075Z,48.37
2018-12-30T19:20:36.375Z,49.03
2018-12-30T19:23:04.665Z,50.50
2018-12-30T19:25:33.327Z,47.37
2018-12-30T19:28:01.613Z,49.20
2018-12-30T19:30:29.908Z,52.23
2018-12-30T19:32:58.572Z,50.47
2018-12-30T19:35:26.859Z,51.50
2018-12-30T19:37:55.165Z,50.57
2018-12-30T19:40:25.106Z,49.73
2018-12-30T19:42:53.405Z,49.70
2018-12-30T19:45:21.995Z,47.87
2018-12-30T19:47:50.298Z,44.87
2018-12-30T19:50:18.966Z,48.53
2018-12-30T19:52:47.543Z,51.43
2018-12-30T19:55:15.837Z,53.73
2018-12-30T19:57:45.772Z,51.83
2018-12-30T20:00:14.321Z,55.67
2018-12-30T20:02:42.619Z,53.00
2018-12-30T20:05:13.559Z,48.90
2018-12-30T20:07:41.841Z,50.93
2018-12-30T20:10:10.205Z,53.33
2018-12-30T20:12:38.499Z,53.53
2018-12-30T20:15:07.543Z,51.87
2018-12-30T20:17:35.828Z,53.07
2018-12-30T20:20:05.345Z,56.30
2018-12-30T20:22:33.625Z,51.17
2018-12-30T20:25:01.921Z,53.73
2018-12-30T20:27:30.242Z,54.37
2018-12-30T20:29:58.872Z,56.43
2018-12-30T20:32:27.164Z,59.43
2018-12-30T20:34:55.459Z,60.47
2018-12-30T20:37:23.810Z,60.33
2018-12-30T20:39:52.372Z,56.10
2018-12-30T20:42:20.957Z,57.40
2018-12-30T20:44:49.249Z,56.53
2018-12-30T20:47:17.562Z,57.73
2018-12-30T20:49:46.221Z,57.60
2018-12-30T20:52:14.523Z,58.93
2018-12-30T20:54:42.808Z,59.87
2018-12-30T20:57:11.111Z,60.30
2018-12-30T20:59:39.392Z,57.87
2018-12-30T21:02:07.772Z,60.63
2018-12-30T21:04:38.339Z,65.23
2018-12-30T21:07:07.007Z,64.03
2018-12-30T21:09:35.291Z,66.20
2018-12-30T21:12:03.864Z,62.10
2018-12-30T21:14:32.151Z,66.10
2018-12-30T21:17:00.737Z,64.77
2018-12-30T21:19:29.539Z,66.97
2018-12-30T21:21:58.093Z,64.40
2018-12-30T21:24:27.718Z,67.87
2018-12-30T21:26:56.973Z,64.50
2018-12-30T21:29:27.542Z,64.13
2018-12-30T21:31:57.154Z,63.47
2018-12-30T21:34:25.444Z,66.13
2018-12-30T21:36:54.149Z,67.03
2018-12-30T21:39:22.425Z,68.60
2018-12-30T21:41:50.718Z,63.47
2018-12-30T21:44:19.039Z,68.00
2018-12-30T21:46:47.323Z,65.93
2018-12-30T21:49:15.623Z,71.80
2018-12-30T21:51:43.927Z,69.43
2018-12-30T21:54:12.225Z,66.80
2018-12-30T21:56:40.514Z,65.60
2018-12-30T21:59:08.815Z,67.73
2018-12-30T22:01:37.105Z,70.97
2018-12-30T22:04:05.416Z,68.93
2018-12-30T22:06:33.719Z,69.13
2018-12-30T22:09:02.021Z,71.37
2018-12-30T22:11:30.284Z,75.00
2018-12-30T22:13:58.589Z,71.27
2018-12-30T22:16:26.886Z,73.10
2018-12-30T22:18:55.222Z,75.90
2018-12-30T22:21:23.496Z,73.73
2018-12-30T22:23:52.021Z,75.07
2018-12-30T22:26:21.175Z,75.13
2018-12-30T22:28:49.445Z,78.20
2018-12-30T22:31:17.777Z,72.50
2018-12-30T22:33:46.059Z,71.97
2018-12-30T22:36:14.353Z,76.37
2018-12-30T22:38:44.021Z,76.93
2018-12-30T22:41:12.298Z,77.83
2018-12-30T22:43:40.596Z,74.53
2018-12-30T22:46:09.233Z,71.37
2018-12-30T22:48:37.524Z,70.27
2018-12-30T22:51:05.850Z,76.97
2018-12-30T22:53:34.202Z,68.33
2018-12-30T22:56:02.663Z,72.37
2018-12-30T22:58:31.207Z,73.57
2018-12-30T23:01:01.538Z,72.57
2018-12-30T23:03:29.824Z,73.90
2018-12-30T23:05:58.116Z,76.20
2018-12-30T23:08:26.401Z,79.70
2018-12-30T23:10:54.691Z,76.40
2018-12-30T23:13:23.056Z,78.53
2018-12-30T23:15:51.728Z,76.60
2018-12-30T23:18:20.012Z,77.17
2018-12-30T23:20:48.287Z,82.47
2018-12-30T23:23:16.600Z,78.03
2018-12-30T23:25:45.866Z,77.37
2018-12-30T23:28:14.254Z,76.70
2018-12-30T23:30:42.553Z,86.67
2018-12-30T23:33:10.849Z,84.23
2018-12-30T23:35:39.133Z,80.00
2018-12-30T23:38:07.436Z,87.73
2018-12-30T23:40:35.720Z,86.03
2018-12-30T23:43:04.085Z,83.43
2018-12-30T23:45:32.772Z,81.63
2018-12-30T23:48:01.099Z,81.50
2018-12-30T23:50:29.378Z,84.03
2018-12-30T23:52:57.920Z,75.97
2018-12-30T23:55:26.492Z,81.47
2018-12-30T23:57:55.073Z,78.43
